createdAt,value
2022-11-08T00:00:37.954Z,3.20
2022-11-08T00:03:46.016Z,2.33
2022-11-08T00:06:48.312Z,3.60
2022-11-08T00:09:50.307Z,2.92
2022-11-08T00:12:52.171Z,2.95
2022-11-08T00:15:54.029Z,2.90
2022-11-08T00:18:55.978Z,3.80
2022-11-08T00:21:58.027Z,3.13
2022-11-08T00:25:00.020Z,3.42
2022-11-08T00:28:01.929Z,3.20
2022-11-08T00:31:07.045Z,3.42
2022-11-08T00:34:08.956Z,3.20
2022-11-08T00:37:11.534Z,2.55
2022-11-08T00:40:13.568Z,3.53
2022-11-08T00:43:15.471Z,2.60
2022-11-08T00:46:17.449Z,2.08
2022-11-08T00:49:19.576Z,2.38
2022-11-08T00:52:21.530Z,2.42
2022-11-08T00:55:23.536Z,2.40
2022-11-08T00:58:27.692Z,2.28
2022-11-08T01:01:30.073Z,2.00
2022-11-08T01:04:32.054Z,2.05
2022-11-08T01:07:34.469Z,2.78
2022-11-08T01:10:36.571Z,1.90
2022-11-08T01:13:41.084Z,2.53
2022-11-08T01:16:43.264Z,2.03
2022-11-08T01:19:45.246Z,3.13
2022-11-08T01:22:47.177Z,2.75
2022-11-08T01:25:49.723Z,1.90
2022-11-08T01:28:52.137Z,2.00
2022-11-08T01:31:54.100Z,1.65
2022-11-08T01:34:55.984Z,1.88
2022-11-08T01:37:58.544Z,2.28
2022-11-08T01:41:00.626Z,1.90
2022-11-08T01:44:02.512Z,1.85
2022-11-08T01:47:04.447Z,2.15
2022-11-08T01:50:13.014Z,2.22
2022-11-08T01:53:14.973Z,2.15
2022-11-08T01:56:17.355Z,2.10
2022-11-08T01:59:19.712Z,2.17
2022-11-08T02:02:22.426Z,1.70
2022-11-08T02:08:37.749Z,3.55
2022-11-08T02:11:40.548Z,3.97
2022-11-08T02:14:42.811Z,3.47
2022-11-08T02:17:44.723Z,4.65
2022-11-08T02:21:00.435Z,3.45
2022-11-08T02:24:09.535Z,3.80
2022-11-08T02:27:13.781Z,3.20
2022-11-08T02:30:15.755Z,2.97
2022-11-08T02:33:20.464Z,2.80
2022-11-08T02:36:24.434Z,2.80
2022-11-08T02:39:26.439Z,3.00
2022-11-08T02:42:28.377Z,2.90
2022-11-08T02:45:30.285Z,2.65
2022-11-08T02:48:32.155Z,2.60
2022-11-08T02:51:34.017Z,3.28
2022-11-08T02:54:35.967Z,3.20
2022-11-08T02:57:37.824Z,2.30
2022-11-08T03:00:40.202Z,2.53
2022-11-08T03:03:42.132Z,2.92
2022-11-08T03:06:44.033Z,3.63
2022-11-08T03:13:04.399Z,3.85
2022-11-08T03:16:06.969Z,3.30
2022-11-08T03:19:08.870Z,3.20
2022-11-08T03:22:10.761Z,3.05
2022-11-08T03:25:13.525Z,2.78
2022-11-08T03:28:19.072Z,1.90
2022-11-08T03:31:23.612Z,2.30
2022-11-08T03:34:25.506Z,2.10
2022-11-08T03:37:27.586Z,1.90
2022-11-08T03:40:29.463Z,1.85
2022-11-08T03:43:31.380Z,1.77
2022-11-08T03:46:33.305Z,1.50
2022-11-08T03:49:35.158Z,1.73
2022-11-08T03:52:41.347Z,1.75
2022-11-08T03:55:43.251Z,2.17
2022-11-08T03:58:45.194Z,2.20
2022-11-08T04:01:47.243Z,1.52
2022-11-08T04:04:51.738Z,2.30
2022-11-08T04:07:53.602Z,1.60
2022-11-08T04:10:56.570Z,2.10
2022-11-08T04:13:58.467Z,2.25
2022-11-08T04:17:00.361Z,2.08
2022-11-08T04:20:02.338Z,1.63
2022-11-08T04:23:04.460Z,1.90
2022-11-08T04:26:08.384Z,2.30
2022-11-08T04:29:10.692Z,1.80
2022-11-08T04:32:12.693Z,1.80
2022-11-08T04:35:14.771Z,1.90
2022-11-08T04:38:17.185Z,2.28
2022-11-08T04:44:24.055Z,1.83
2022-11-08T04:47:26.051Z,1.70
2022-11-08T04:50:27.985Z,1.60
2022-11-08T04:53:30.112Z,1.45
2022-11-08T04:56:32.118Z,1.73
2022-11-08T04:59:36.598Z,1.25
2022-11-08T05:02:40.911Z,1.60
2022-11-08T05:05:42.810Z,1.50
2022-11-08T05:08:44.982Z,1.50
2022-11-08T05:11:46.940Z,1.48
2022-11-08T05:14:48.834Z,1.98
2022-11-08T05:17:50.803Z,2.28
2022-11-08T05:20:56.946Z,1.65
2022-11-08T05:23:59.584Z,1.67
2022-11-08T05:27:01.477Z,1.42
2022-11-08T05:30:06.222Z,1.80
2022-11-08T05:33:08.735Z,1.60
2022-11-08T05:36:15.082Z,1.30
2022-11-08T05:39:16.951Z,1.70
2022-11-08T05:42:18.873Z,1.88
2022-11-08T05:45:22.087Z,1.67
2022-11-08T05:48:24.440Z,1.65
2022-11-08T05:51:26.354Z,1.95
2022-11-08T05:54:28.228Z,1.50
2022-11-08T05:57:30.043Z,1.67
2022-11-08T06:00:31.996Z,1.67
2022-11-08T06:03:36.955Z,1.88
2022-11-08T06:06:39.278Z,1.90
2022-11-08T06:09:41.275Z,1.85
2022-11-08T06:12:43.314Z,1.80
2022-11-08T06:15:45.379Z,1.50
2022-11-08T06:18:48.093Z,1.58
2022-11-08T06:21:50.218Z,1.88
2022-11-08T06:24:52.254Z,1.98
2022-11-08T06:27:54.248Z,2.22
2022-11-08T06:30:59.828Z,1.83
2022-11-08T06:34:02.548Z,1.95
2022-11-08T06:40:07.403Z,1.90
2022-11-08T06:46:20.183Z,2.25
2022-11-08T06:49:25.705Z,1.92
2022-11-08T06:52:27.852Z,2.50
2022-11-08T06:55:31.106Z,3.10
2022-11-08T06:58:33.249Z,2.92
2022-11-08T07:01:35.620Z,2.58
2022-11-08T07:04:37.792Z,2.92
2022-11-08T07:07:39.923Z,4.70
2022-11-08T07:10:41.981Z,3.63
2022-11-08T07:13:44.172Z,3.13
2022-11-08T07:16:46.178Z,2.70
2022-11-08T07:19:48.226Z,2.70
2022-11-08T07:22:54.081Z,2.70
2022-11-08T07:25:56.070Z,2.55
2022-11-08T07:28:58.205Z,3.60
2022-11-08T07:32:00.365Z,5.03
2022-11-08T07:35:02.394Z,6.97
2022-11-08T07:38:04.354Z,3.28
2022-11-08T07:41:06.614Z,2.55
2022-11-08T07:44:08.560Z,2.30
2022-11-08T07:47:10.996Z,2.33
2022-11-08T07:50:16.382Z,2.15
2022-11-08T07:53:20.273Z,2.22
2022-11-08T07:56:22.651Z,2.38
2022-11-08T07:59:27.180Z,2.40
2022-11-08T08:02:29.309Z,2.10
2022-11-08T08:05:35.272Z,2.22
2022-11-08T08:08:37.477Z,2.65
2022-11-08T08:11:39.529Z,2.25
2022-11-08T08:14:41.479Z,2.50
2022-11-08T08:17:43.547Z,2.00
2022-11-08T08:20:46.761Z,3.22
2022-11-08T08:23:48.787Z,3.47
2022-11-08T08:26:50.804Z,3.88
2022-11-08T08:29:52.843Z,3.58
2022-11-08T08:33:26.935Z,3.15
2022-11-08T08:36:24.712Z,3.08
2022-11-08T08:39:26.724Z,3.05
2022-11-08T08:42:28.720Z,3.10
2022-11-08T08:45:32.235Z,4.25
2022-11-08T08:48:34.471Z,3.25
2022-11-08T08:51:36.507Z,2.45
2022-11-08T08:54:38.551Z,2.63
2022-11-08T08:57:47.556Z,3.20
2022-11-08T09:04:11.711Z,2.80
2022-11-08T09:07:13.999Z,2.72
2022-11-08T09:13:18.465Z,2.30
2022-11-08T09:16:20.727Z,2.85
2022-11-08T09:19:22.761Z,2.85
2022-11-08T09:22:24.826Z,2.10
2022-11-08T09:28:31.721Z,2.03
2022-11-08T09:31:33.957Z,2.67
2022-11-08T09:34:36.119Z,2.10
2022-11-08T09:40:52.788Z,2.15
2022-11-08T09:44:17.052Z,2.20
2022-11-08T09:47:34.690Z,1.73
2022-11-08T09:50:45.442Z,2.20
2022-11-08T09:53:58.943Z,1.92
2022-11-08T09:57:02.249Z,1.90
2022-11-08T10:00:12.710Z,2.00
2022-11-08T10:03:18.188Z,1.65
2022-11-08T10:06:35.394Z,2.15
2022-11-08T10:10:05.593Z,1.80
2022-11-08T10:13:10.796Z,2.03
2022-11-08T10:16:26.104Z,2.45
2022-11-08T10:20:03.670Z,3.00
2022-11-08T10:23:26.730Z,2.30
2022-11-08T10:26:36.980Z,2.58
2022-11-08T10:29:44.274Z,1.90
2022-11-08T10:32:50.480Z,2.33
2022-11-08T10:36:24.414Z,1.85
2022-11-08T10:39:34.934Z,2.33
2022-11-08T10:42:45.452Z,2.10
2022-11-08T10:45:47.440Z,2.28
2022-11-08T10:48:49.478Z,2.05
2022-11-08T10:51:59.830Z,1.90
2022-11-08T10:55:05.753Z,1.88
2022-11-08T10:58:29.339Z,1.70
2022-11-08T11:01:31.463Z,1.75
2022-11-08T11:04:33.959Z,1.98
2022-11-08T11:10:42.325Z,2.10
2022-11-08T11:13:44.392Z,1.95
2022-11-08T11:16:58.629Z,1.77
2022-11-08T11:20:00.904Z,1.67
2022-11-08T11:23:02.904Z,2.17
2022-11-08T11:26:16.797Z,1.83
2022-11-08T11:29:36.751Z,2.20
2022-11-08T11:32:39.108Z,1.73
2022-11-08T11:35:53.320Z,1.45
2022-11-08T11:42:45.178Z,1.65
2022-11-08T11:46:08.976Z,2.05
2022-11-08T11:49:19.643Z,1.48
2022-11-08T12:03:41.475Z,1.85
2022-11-08T12:06:53.796Z,1.58
2022-11-08T12:10:19.723Z,1.80
2022-11-08T12:13:33.797Z,1.50
2022-11-08T12:17:06.046Z,1.67
2022-11-08T12:23:31.499Z,2.38
2022-11-08T12:26:42.459Z,1.58
2022-11-08T12:29:56.250Z,1.50
2022-11-08T12:33:25.412Z,1.60
2022-11-08T12:36:42.287Z,1.77
2022-11-08T12:39:52.586Z,1.80
2022-11-08T12:43:00.002Z,1.40
2022-11-08T12:46:11.729Z,1.75
2022-11-08T12:49:27.742Z,1.73
2022-11-08T12:52:41.927Z,1.73
2022-11-08T12:55:47.870Z,1.95
2022-11-08T12:58:51.736Z,1.98
2022-11-08T13:01:56.890Z,2.33
2022-11-08T13:05:04.810Z,1.92
2022-11-08T13:08:06.669Z,2.17
2022-11-08T13:11:19.469Z,2.58
2022-11-08T13:14:22.499Z,2.70
2022-11-08T13:17:26.761Z,2.35
2022-11-08T13:20:47.361Z,2.17
2022-11-08T13:23:49.292Z,2.00
2022-11-08T13:26:53.729Z,1.83
2022-11-08T13:30:19.225Z,1.65
2022-11-08T13:33:32.423Z,1.95
2022-11-08T13:37:05.370Z,1.98
2022-11-08T13:40:12.992Z,2.00
2022-11-08T13:43:21.006Z,2.83
2022-11-08T13:46:22.866Z,2.00
2022-11-08T13:49:24.822Z,1.80
2022-11-08T13:52:45.450Z,2.50
2022-11-08T13:56:17.456Z,2.25
2022-11-08T13:59:31.629Z,2.00
2022-11-08T14:02:34.286Z,1.80
2022-11-08T14:05:46.618Z,1.50
2022-11-08T14:09:30.668Z,1.60
2022-11-08T14:13:10.038Z,1.90
2022-11-08T14:16:20.615Z,1.85
2022-11-08T14:19:25.832Z,2.13
2022-11-08T14:22:30.127Z,2.70
2022-11-08T14:25:35.471Z,1.90
2022-11-08T14:28:41.190Z,1.90
2022-11-08T14:31:43.249Z,1.70
2022-11-08T14:34:45.912Z,1.73
2022-11-08T14:37:48.804Z,1.90
2022-11-08T14:44:14.780Z,2.00
2022-11-08T14:47:25.650Z,1.90
2022-11-08T14:50:34.198Z,1.75
2022-11-08T14:53:51.035Z,1.75
2022-11-08T14:56:53.306Z,2.10
2022-11-08T15:03:01.742Z,1.35
2022-11-08T15:06:13.554Z,1.88
2022-11-08T15:09:25.097Z,2.10
2022-11-08T15:12:42.930Z,2.40
2022-11-08T15:15:54.387Z,1.80
2022-11-08T15:18:56.380Z,1.92
2022-11-08T15:22:21.785Z,2.20
2022-11-08T15:25:34.248Z,2.53
2022-11-08T15:28:38.403Z,1.92
2022-11-08T15:32:01.110Z,2.00
2022-11-08T15:35:04.918Z,2.40
2022-11-08T15:38:29.741Z,2.80
2022-11-08T15:41:40.096Z,2.65
2022-11-08T15:45:02.530Z,2.20
2022-11-08T15:48:07.537Z,2.30
2022-11-08T15:51:09.397Z,3.38
2022-11-08T15:54:11.381Z,3.75
2022-11-08T15:57:13.232Z,3.38
2022-11-08T16:00:17.912Z,2.90
2022-11-08T16:03:19.870Z,2.22
2022-11-08T16:06:21.773Z,2.67
2022-11-08T16:09:23.679Z,2.20
2022-11-08T16:12:25.603Z,2.83
2022-11-08T16:15:30.482Z,3.60
2022-11-08T16:18:32.375Z,8.23
2022-11-08T16:21:34.265Z,4.78
2022-11-08T16:24:36.177Z,3.70
2022-11-08T16:27:38.095Z,2.70
2022-11-08T16:30:40.048Z,2.80
2022-11-08T16:33:46.167Z,3.72
2022-11-08T16:36:49.464Z,3.55
2022-11-08T16:39:51.415Z,3.95
2022-11-08T16:42:53.675Z,3.30
2022-11-08T16:46:06.082Z,3.75
2022-11-08T16:49:19.808Z,3.42
2022-11-08T16:52:21.674Z,2.70
2022-11-08T16:55:23.921Z,3.15
2022-11-08T16:58:26.800Z,3.63
2022-11-08T17:01:33.319Z,4.63
2022-11-08T17:04:35.282Z,4.75
2022-11-08T17:07:37.372Z,3.55
2022-11-08T17:10:39.512Z,3.63
2022-11-08T17:13:41.419Z,3.92
2022-11-08T17:16:43.260Z,4.65
2022-11-08T17:19:45.169Z,3.42
2022-11-08T17:22:48.291Z,3.53
2022-11-08T17:25:50.209Z,3.72
2022-11-08T17:28:55.654Z,5.32
2022-11-08T17:31:57.540Z,6.93
2022-11-08T17:34:59.371Z,6.35
2022-11-08T17:38:01.246Z,6.85
2022-11-08T17:41:05.419Z,6.97
2022-11-08T17:44:07.427Z,5.40
2022-11-08T17:47:09.359Z,4.15
2022-11-08T17:50:13.651Z,4.20
2022-11-08T17:53:15.648Z,3.90
2022-11-08T17:56:17.727Z,5.10
2022-11-08T17:59:19.906Z,4.18
2022-11-08T18:02:21.899Z,4.47
2022-11-08T18:05:24.110Z,3.30
2022-11-08T18:08:28.188Z,4.13
2022-11-08T18:11:30.733Z,3.33
2022-11-08T18:17:35.799Z,4.40
2022-11-08T18:20:42.453Z,3.88
2022-11-08T18:23:47.002Z,3.05
2022-11-08T18:26:49.101Z,8.00
2022-11-08T18:29:51.264Z,3.75
2022-11-08T18:32:53.317Z,5.35
2022-11-08T18:35:55.697Z,5.10
2022-11-08T18:39:00.431Z,3.80
2022-11-08T18:42:02.507Z,3.67
2022-11-08T18:45:04.988Z,4.50
2022-11-08T18:51:12.488Z,6.38
2022-11-08T18:54:14.648Z,5.32
2022-11-08T18:57:17.137Z,4.63
2022-11-08T19:00:19.308Z,3.45
2022-11-08T19:03:21.944Z,4.90
2022-11-08T19:06:26.292Z,6.43
2022-11-08T19:09:28.419Z,6.40
2022-11-08T19:12:30.516Z,5.97
2022-11-08T19:15:32.657Z,5.80
2022-11-08T19:18:35.733Z,5.88
2022-11-08T19:21:38.059Z,4.72
2022-11-08T19:27:42.213Z,4.70
2022-11-08T19:30:52.948Z,5.80
2022-11-08T19:33:55.663Z,7.65
2022-11-08T19:36:57.696Z,7.95
2022-11-08T19:39:59.758Z,7.10
2022-11-08T19:43:01.851Z,7.43
2022-11-08T19:46:05.685Z,5.72
2022-11-08T19:49:07.822Z,5.78
2022-11-08T19:52:09.821Z,5.63
2022-11-08T19:55:12.094Z,5.93
2022-11-08T19:58:14.218Z,5.50
2022-11-08T20:01:23.176Z,5.32
2022-11-08T20:04:25.307Z,6.28
2022-11-08T20:07:27.341Z,7.05
2022-11-08T20:10:29.443Z,6.40
2022-11-08T20:13:31.698Z,6.22
2022-11-08T20:16:37.162Z,6.80
2022-11-08T20:19:39.227Z,6.20
2022-11-08T20:22:44.291Z,6.60
2022-11-08T20:25:49.033Z,6.40
2022-11-08T20:28:56.390Z,7.25
2022-11-08T20:32:00.250Z,6.20
2022-11-08T20:35:04.192Z,6.40
2022-11-08T20:38:06.631Z,5.95
2022-11-08T20:41:12.519Z,7.05
2022-11-08T20:44:14.627Z,6.28
2022-11-08T20:47:16.710Z,5.95
2022-11-08T20:50:18.871Z,6.40
2022-11-08T20:53:20.869Z,5.00
2022-11-08T20:56:24.522Z,4.68
2022-11-08T20:59:26.939Z,4.57
2022-11-08T21:05:31.205Z,5.47
2022-11-08T21:11:58.305Z,6.75
2022-11-08T21:15:00.361Z,13.52
2022-11-08T21:18:02.348Z,14.48
2022-11-08T21:21:14.434Z,11.55
2022-11-08T21:24:16.655Z,10.23
2022-11-08T21:27:18.705Z,10.52
2022-11-08T21:30:20.808Z,10.48
2022-11-08T21:33:23.927Z,11.45
2022-11-08T21:36:28.312Z,11.68
2022-11-08T21:39:31.181Z,11.48
2022-11-08T21:42:39.681Z,8.55
2022-11-08T21:45:43.759Z,7.00
2022-11-08T21:48:46.855Z,8.38
2022-11-08T21:51:49.400Z,6.70
2022-11-08T21:54:51.437Z,6.38
2022-11-08T21:57:53.560Z,7.57
2022-11-08T22:00:55.823Z,7.50
2022-11-08T22:03:58.785Z,5.80
2022-11-08T22:07:01.028Z,7.00
2022-11-08T22:10:04.204Z,6.60
2022-11-08T22:13:06.209Z,6.35
2022-11-08T22:16:08.393Z,7.80
2022-11-08T22:22:13.790Z,5.82
2022-11-08T22:25:15.751Z,6.05
2022-11-08T22:28:18.169Z,5.80
2022-11-08T22:31:20.593Z,4.43
2022-11-08T22:34:22.690Z,4.28
2022-11-08T22:37:24.756Z,4.10
2022-11-08T22:40:26.819Z,5.72
2022-11-08T22:43:28.816Z,5.13
2022-11-08T22:46:30.841Z,4.30
2022-11-08T22:49:32.791Z,4.70
2022-11-08T22:52:34.868Z,4.20
2022-11-08T22:55:36.910Z,4.65
2022-11-08T22:58:39.639Z,4.57
2022-11-08T23:01:41.684Z,4.30
2022-11-08T23:04:43.666Z,4.78
2022-11-08T23:07:45.736Z,4.40
2022-11-08T23:10:48.451Z,4.45
2022-11-08T23:13:50.770Z,5.55
2022-11-08T23:16:52.732Z,6.00
2022-11-08T23:19:54.673Z,3.88
2022-11-08T23:22:56.772Z,4.20
2022-11-08T23:25:58.849Z,4.15
2022-11-08T23:29:00.982Z,4.38
2022-11-08T23:32:03.109Z,4.78
2022-11-08T23:35:05.303Z,5.22
2022-11-08T23:38:07.287Z,5.25
2022-11-08T23:41:10.065Z,5.03
2022-11-08T23:44:12.143Z,5.32
2022-11-08T23:47:16.570Z,5.10
2022-11-08T23:50:18.587Z,4.50
2022-11-08T23:53:22.457Z,5.68
2022-11-08T23:56:26.765Z,5.00
2022-11-08T23:59:28.669Z,5.47
